sensor_id;sensor_type;location;lat;lon;timestamp;pressure;altitude;pressure_sealevel;temperature;humidity
9141;BME280;46330;50.822;7.126;2023-03-15T00:00:51;100600.69;;;1.71;91.16
9141;BME280;46330;50.822;7.126;2023-03-15T00:03:21;100602.44;;;1.73;91.79
9141;BME280;46330;50.822;7.126;2023-03-15T00:05:50;100599.06;;;1.77;91.31
9141;BME280;46330;50.822;7.126;2023-03-15T00:08:18;100597.38;;;1.81;90.69
9141;BME280;46330;50.822;7.126;2023-03-15T00:10:47;100604.25;;;1.79;90.22
9141;BME280;46330;50.822;7.126;2023-03-15T00:13:15;100590.38;;;1.71;90.25
9141;BME280;46330;50.822;7.126;2023-03-15T00:15:46;100610.22;;;1.78;91.22
9141;BME280;46330;50.822;7.126;2023-03-15T00:18:16;100605.06;;;1.76;90.84
9141;BME280;46330;50.822;7.126;2023-03-15T00:20:45;100608.53;;;1.78;90.95
9141;BME280;46330;50.822;7.126;2023-03-15T00:23:14;100616.19;;;1.74;90.55
9141;BME280;46330;50.822;7.126;2023-03-15T00:25:43;100613.63;;;1.74;90.88
9141;BME280;46330;50.822;7.126;2023-03-15T00:28:12;100617.16;;;1.80;90.01
9141;BME280;46330;50.822;7.126;2023-03-15T00:30:40;100614.59;;;1.82;90.76
9141;BME280;46330;50.822;7.126;2023-03-15T00:33:10;100614.66;;;1.85;89.98
9141;BME280;46330;50.822;7.126;2023-03-15T00:35:40;100623.38;;;1.93;90.26
9141;BME280;46330;50.822;7.126;2023-03-15T00:38:09;100613.94;;;1.95;90.61
9141;BME280;46330;50.822;7.126;2023-03-15T00:40:40;100614.03;;;2.01;89.73
9141;BME280;46330;50.822;7.126;2023-03-15T00:43:08;100615.75;;;2.00;90.44
9141;BME280;46330;50.822;7.126;2023-03-15T00:45:36;100613.25;;;2.05;90.38
9141;BME280;46330;50.822;7.126;2023-03-15T00:48:05;100619.28;;;2.07;90.67
9141;BME280;46330;50.822;7.126;2023-03-15T00:50:34;100617.53;;;2.04;89.90
9141;BME280;46330;50.822;7.126;2023-03-15T00:53:02;100613.28;;;2.09;89.79
9141;BME280;46330;50.822;7.126;2023-03-15T00:55:30;100612.38;;;2.06;89.53
9141;BME280;46330;50.822;7.126;2023-03-15T00:57:58;100608.97;;;2.07;89.71
9141;BME280;46330;50.822;7.126;2023-03-15T01:00:26;100624.47;;;2.08;89.92
9141;BME280;46330;50.822;7.126;2023-03-15T01:02:54;100612.47;;;2.10;90.05
9141;BME280;46330;50.822;7.126;2023-03-15T01:05:22;100615.81;;;2.06;90.39
9141;BME280;46330;50.822;7.126;2023-03-15T01:07:53;100620.16;;;2.07;91.19
9141;BME280;46330;50.822;7.126;2023-03-15T01:10:21;100624.53;;;2.11;91.20
9141;BME280;46330;50.822;7.126;2023-03-15T01:12:49;100609.84;;;2.07;90.11
9141;BME280;46330;50.822;7.126;2023-03-15T01:15:17;100617.56;;;2.07;90.44
9141;BME280;46330;50.822;7.126;2023-03-15T01:17:45;100618.44;;;2.09;90.64
9141;BME280;46330;50.822;7.126;2023-03-15T01:20:14;100615.00;;;2.09;90.41
9141;BME280;46330;50.822;7.126;2023-03-15T01:22:42;100621.94;;;2.11;91.07
9141;BME280;46330;50.822;7.126;2023-03-15T01:25:11;100616.78;;;2.11;90.53
9141;BME280;46330;50.822;7.126;2023-03-15T01:27:39;100627.16;;;2.14;91.35
9141;BME280;46330;50.822;7.126;2023-03-15T01:30:08;100618.53;;;2.14;91.60
9141;BME280;46330;50.822;7.126;2023-03-15T01:32:36;100617.66;;;2.15;91.21
9141;BME280;46330;50.822;7.126;2023-03-15T01:35:05;100622.00;;;2.16;90.84
9141;BME280;46330;50.822;7.126;2023-03-15T01:37:34;100621.16;;;2.17;90.87
9141;BME280;46330;50.822;7.126;2023-03-15T01:40:02;100634.94;;;2.19;91.70
9141;BME280;46330;50.822;7.126;2023-03-15T01:42:49;100640.16;;;2.24;91.71
9141;BME280;46330;50.822;7.126;2023-03-15T01:45:52;100646.94;;;2.17;92.65
9141;BME280;46330;50.822;7.126;2023-03-15T01:48:23;100659.81;;;2.15;94.52
9141;BME280;46330;50.822;7.126;2023-03-15T01:50:52;100667.50;;;2.12;96.75
9141;BME280;46330;50.822;7.126;2023-03-15T01:53:21;100666.44;;;2.00;97.05
9141;BME280;46330;50.822;7.126;2023-03-15T01:55:52;100672.38;;;1.94;100.00
9141;BME280;46330;50.822;7.126;2023-03-15T01:58:30;100676.56;;;1.86;100.00
9141;BME280;46330;50.822;7.126;2023-03-15T02:01:02;100675.59;;;1.81;100.00
9141;BME280;46330;50.822;7.126;2023-03-15T02:03:38;100672.88;;;1.72;100.00
9141;BME280;46330;50.822;7.126;2023-03-15T02:06:16;100680.63;;;1.72;100.00
9141;BME280;46330;50.822;7.126;2023-03-15T02:08:54;100675.50;;;1.75;100.00
9141;BME280;46330;50.822;7.126;2023-03-15T02:11:24;100681.53;;;1.76;100.00
9141;BME280;46330;50.822;7.126;2023-03-15T02:13:55;100677.09;;;1.67;100.00
9141;BME280;46330;50.822;7.126;2023-03-15T02:16:25;100675.28;;;1.61;100.00
9141;BME280;46330;50.822;7.126;2023-03-15T02:18:57;100677.94;;;1.66;100.00
9141;BME280;46330;50.822;7.126;2023-03-15T02:21:37;100677.00;;;1.61;100.00
9141;BME280;46330;50.822;7.126;2023-03-15T02:24:18;100676.28;;;1.68;100.00
9141;BME280;46330;50.822;7.126;2023-03-15T02:26:52;100677.19;;;1.73;100.00
9141;BME280;46330;50.822;7.126;2023-03-15T02:29:24;100675.44;;;1.71;100.00
9141;BME280;46330;50.822;7.126;2023-03-15T02:31:54;100661.59;;;1.64;100.00
9141;BME280;46330;50.822;7.126;2023-03-15T02:34:24;100668.59;;;1.71;100.00
9141;BME280;46330;50.822;7.126;2023-03-15T02:36:52;100672.97;;;1.77;100.00
9141;BME280;46330;50.822;7.126;2023-03-15T02:39:21;100659.31;;;1.82;100.00
9141;BME280;46330;50.822;7.126;2023-03-15T02:41:52;100656.72;;;1.84;100.00
9141;BME280;46330;50.822;7.126;2023-03-15T02:44:26;100656.81;;;1.87;100.00
9141;BME280;46330;50.822;7.126;2023-03-15T02:46:58;100652.50;;;1.87;100.00
9141;BME280;46330;50.822;7.126;2023-03-15T02:49:30;100661.06;;;1.83;100.00
9141;BME280;46330;50.822;7.126;2023-03-15T02:51:59;100656.69;;;1.81;100.00
9141;BME280;46330;50.822;7.126;2023-03-15T02:54:27;100659.22;;;1.76;100.00
9141;BME280;46330;50.822;7.126;2023-03-15T02:56:55;100669.47;;;1.73;100.00
9141;BME280;46330;50.822;7.126;2023-03-15T02:59:24;100663.44;;;1.23;100.00
9141;BME280;46330;50.822;7.126;2023-03-15T03:01:52;100676.31;;;1.25;100.00
9141;BME280;46330;50.822;7.126;2023-03-15T03:04:20;100689.78;;;1.10;100.00
9141;BME280;46330;50.822;7.126;2023-03-15T03:06:48;100699.09;;;1.03;100.00
9141;BME280;46330;50.822;7.126;2023-03-15T03:09:20;100704.75;;;0.87;100.00
9141;BME280;46330;50.822;7.126;2023-03-15T03:11:49;100704.81;;;0.89;100.00
9141;BME280;46330;50.822;7.126;2023-03-15T03:14:17;100702.28;;;0.92;100.00
9141;BME280;46330;50.822;7.126;2023-03-15T03:16:46;100702.25;;;0.90;100.00
9141;BME280;46330;50.822;7.126;2023-03-15T03:19:16;100706.63;;;0.94;100.00
9141;BME280;46330;50.822;7.126;2023-03-15T03:21:44;100715.00;;;0.84;100.00
9141;BME280;46330;50.822;7.126;2023-03-15T03:24:12;100704.91;;;0.93;100.00
9141;BME280;46330;50.822;7.126;2023-03-15T03:26:42;100705.94;;;1.01;100.00
9141;BME280;46330;50.822;7.126;2023-03-15T03:29:13;100709.38;;;1.03;100.00
9141;BME280;46330;50.822;7.126;2023-03-15T03:31:45;100711.19;;;1.07;100.00
9141;BME280;46330;50.822;7.126;2023-03-15T03:34:15;100713.78;;;1.07;100.00
9141;BME280;46330;50.822;7.126;2023-03-15T03:36:43;100711.91;;;1.00;100.00
9141;BME280;46330;50.822;7.126;2023-03-15T03:39:15;100718.75;;;1.00;100.00
9141;BME280;46330;50.822;7.126;2023-03-15T03:41:44;100723.84;;;0.97;100.00
9141;BME280;46330;50.822;7.126;2023-03-15T03:44:12;100718.81;;;1.01;100.00
9141;BME280;46330;50.822;7.126;2023-03-15T03:46:41;100733.25;;;0.95;100.00
9141;BME280;46330;50.822;7.126;2023-03-15T03:49:11;100733.25;;;0.93;100.00
9141;BME280;46330;50.822;7.126;2023-03-15T03:51:41;100734.22;;;1.00;100.00
9141;BME280;46330;50.822;7.126;2023-03-15T03:54:09;100730.63;;;0.92;100.00
9141;BME280;46330;50.822;7.126;2023-03-15T03:56:37;100730.44;;;0.84;100.00
9141;BME280;46330;50.822;7.126;2023-03-15T03:59:06;100727.66;;;0.74;100.00
9141;BME280;46330;50.822;7.126;2023-03-15T04:01:54;100731.97;;;0.75;100.00
9141;BME280;46330;50.822;7.126;2023-03-15T04:04:22;100735.38;;;0.74;100.00
9141;BME280;46330;50.822;7.126;2023-03-15T04:06:54;100744.03;;;0.77;100.00
9141;BME280;46330;50.822;7.126;2023-03-15T04:09:26;100739.53;;;0.67;100.00
9141;BME280;46330;50.822;7.126;2023-03-15T04:11:54;100737.84;;;0.69;100.00
9141;BME280;46330;50.822;7.126;2023-03-15T04:14:23;100742.91;;;0.66;100.00
9141;BME280;46330;50.822;7.126;2023-03-15T04:16:52;100742.97;;;0.68;100.00
9141;BME280;46330;50.822;7.126;2023-03-15T04:19:21;100742.03;;;0.64;100.00
9141;BME280;46330;50.822;7.126;2023-03-15T04:21:50;100742.03;;;0.64;100.00
9141;BME280;46330;50.822;7.126;2023-03-15T04:24:31;100740.34;;;0.65;100.00
9141;BME280;46330;50.822;7.126;2023-03-15T04:27:07;100737.88;;;0.71;100.00
9141;BME280;46330;50.822;7.126;2023-03-15T04:29:58;100748.06;;;0.66;100.00
9141;BME280;46330;50.822;7.126;2023-03-15T04:32:59;100739.41;;;0.63;100.00
9141;BME280;46330;50.822;7.126;2023-03-15T04:35:46;100746.22;;;0.59;100.00
9141;BME280;46330;50.822;7.126;2023-03-15T04:38:32;100741.91;;;0.60;100.00
9141;BME280;46330;50.822;7.126;2023-03-15T04:41:13;100738.44;;;0.56;100.00
9141;BME280;46330;50.822;7.126;2023-03-15T04:43:55;100736.63;;;0.53;100.00
9141;BME280;46330;50.822;7.126;2023-03-15T04:46:43;100737.69;;;0.62;100.00
9141;BME280;46330;50.822;7.126;2023-03-15T04:49:30;100749.75;;;0.64;100.00
9141;BME280;46330;50.822;7.126;2023-03-15T04:52:09;100741.84;;;0.57;100.00
9141;BME280;46330;50.822;7.126;2023-03-15T04:54:50;100752.19;;;0.58;100.00
9141;BME280;46330;50.822;7.126;2023-03-15T04:57:39;100757.34;;;0.60;100.00
9141;BME280;46330;50.822;7.126;2023-03-15T05:00:26;100765.25;;;0.67;100.00
9141;BME280;46330;50.822;7.126;2023-03-15T05:03:00;100772.22;;;0.71;100.00
9141;BME280;46330;50.822;7.126;2023-03-15T05:05:48;100775.56;;;0.69;100.00
9141;BME280;46330;50.822;7.126;2023-03-15T05:08:36;100775.63;;;0.72;100.00
9141;BME280;46330;50.822;7.126;2023-03-15T05:11:17;100789.31;;;0.69;100.00
9141;BME280;46330;50.822;7.126;2023-03-15T05:14:06;100788.41;;;0.67;100.00
9141;BME280;46330;50.822;7.126;2023-03-15T05:16:48;100785.03;;;0.68;100.00
9141;BME280;46330;50.822;7.126;2023-03-15T05:19:43;100790.09;;;0.65;100.00
9141;BME280;46330;50.822;7.126;2023-03-15T05:22:41;100792.69;;;0.65;100.00
9141;BME280;46330;50.822;7.126;2023-03-15T05:25:36;100795.38;;;0.71;100.00
9141;BME280;46330;50.822;7.126;2023-03-15T05:28:23;100802.19;;;0.69;100.00
9141;BME280;46330;50.822;7.126;2023-03-15T05:31:11;100799.59;;;0.69;100.00
9141;BME280;46330;50.822;7.126;2023-03-15T05:34:11;100799.59;;;0.68;100.00
9141;BME280;46330;50.822;7.126;2023-03-15T05:36:55;100803.13;;;0.73;100.00
9141;BME280;46330;50.822;7.126;2023-03-15T05:39:36;100806.53;;;0.72;100.00
9141;BME280;46330;50.822;7.126;2023-03-15T05:42:12;100812.59;;;0.74;100.00
9141;BME280;46330;50.822;7.126;2023-03-15T05:44:56;100814.38;;;0.76;100.00
9141;BME280;46330;50.822;7.126;2023-03-15T05:47:44;100816.69;;;0.66;100.00
9141;BME280;46330;50.822;7.126;2023-03-15T05:50:30;100828.88;;;0.73;100.00
9141;BME280;46330;50.822;7.126;2023-03-15T05:53:25;100839.34;;;0.80;100.00
9141;BME280;46330;50.822;7.126;2023-03-15T05:56:04;100843.66;;;0.81;100.00
9141;BME280;46330;50.822;7.126;2023-03-15T05:58:51;100848.88;;;0.84;100.00
9141;BME280;46330;50.822;7.126;2023-03-15T06:01:41;100859.22;;;0.86;100.00
9141;BME280;46330;50.822;7.126;2023-03-15T06:04:20;100863.63;;;0.91;100.00
9141;BME280;46330;50.822;7.126;2023-03-15T06:06:49;100855.16;;;0.95;100.00
9141;BME280;46330;50.822;7.126;2023-03-15T06:09:19;100864.69;;;0.99;100.00
9141;BME280;46330;50.822;7.126;2023-03-15T06:11:47;100871.63;;;1.03;100.00
9141;BME280;46330;50.822;7.126;2023-03-15T06:14:15;100882.88;;;1.07;100.00
9141;BME280;46330;50.822;7.126;2023-03-15T06:16:47;100874.31;;;1.08;100.00
9141;BME280;46330;50.822;7.126;2023-03-15T06:19:16;100885.50;;;1.10;100.00
9141;BME280;46330;50.822;7.126;2023-03-15T06:21:46;100886.38;;;1.11;100.00
9141;BME280;46330;50.822;7.126;2023-03-15T06:24:22;100882.19;;;1.14;100.00
9141;BME280;46330;50.822;7.126;2023-03-15T06:26:52;100886.50;;;1.15;100.00
9141;BME280;46330;50.822;7.126;2023-03-15T06:29:22;100893.50;;;1.22;100.00
9141;BME280;46330;50.822;7.126;2023-03-15T06:31:52;100891.88;;;1.24;100.00
9141;BME280;46330;50.822;7.126;2023-03-15T06:34:22;100898.66;;;1.22;100.00
9141;BME280;46330;50.822;7.126;2023-03-15T06:36:52;100893.50;;;1.22;100.00
9141;BME280;46330;50.822;7.126;2023-03-15T06:39:21;100903.88;;;1.24;100.00
9141;BME280;46330;50.822;7.126;2023-03-15T06:41:50;100901.22;;;1.21;100.00
9141;BME280;46330;50.822;7.126;2023-03-15T06:44:21;100916.53;;;1.15;100.00
9141;BME280;46330;50.822;7.126;2023-03-15T06:46:54;100927.78;;;1.18;100.00
9141;BME280;46330;50.822;7.126;2023-03-15T06:49:22;100932.00;;;1.16;100.00
9141;BME280;46330;50.822;7.126;2023-03-15T06:51:52;100937.22;;;1.19;100.00
9141;BME280;46330;50.822;7.126;2023-03-15T06:54:21;100937.22;;;1.18;100.00
9141;BME280;46330;50.822;7.126;2023-03-15T06:56:49;100940.75;;;1.23;100.00
9141;BME280;46330;50.822;7.126;2023-03-15T06:59:17;100951.19;;;1.29;100.00
9141;BME280;46330;50.822;7.126;2023-03-15T07:01:45;100950.31;;;1.28;100.00
9141;BME280;46330;50.822;7.126;2023-03-15T07:04:13;100954.59;;;1.26;100.00
9141;BME280;46330;50.822;7.126;2023-03-15T07:06:41;100964.13;;;1.30;100.00
9141;BME280;46330;50.822;7.126;2023-03-15T07:09:10;100971.94;;;1.35;100.00
9141;BME280;46330;50.822;7.126;2023-03-15T07:11:38;100975.53;;;1.40;100.00
9141;BME280;46330;50.822;7.126;2023-03-15T07:14:06;100981.56;;;1.42;100.00
9141;BME280;46330;50.822;7.126;2023-03-15T07:16:34;100978.19;;;1.44;100.00
9141;BME280;46330;50.822;7.126;2023-03-15T07:19:02;100978.19;;;1.44;100.00
9141;BME280;46330;50.822;7.126;2023-03-15T07:21:31;100987.66;;;1.45;100.00
9141;BME280;46330;50.822;7.126;2023-03-15T07:23:59;100992.84;;;1.47;100.00
9141;BME280;46330;50.822;7.126;2023-03-15T07:26:28;100997.31;;;1.54;100.00
9141;BME280;46330;50.822;7.126;2023-03-15T07:28:56;100998.19;;;1.54;100.00
9141;BME280;46330;50.822;7.126;2023-03-15T07:31:24;101005.03;;;1.52;100.00
9141;BME280;46330;50.822;7.126;2023-03-15T07:33:52;101004.22;;;1.56;100.00
9141;BME280;46330;50.822;7.126;2023-03-15T07:36:20;101017.25;;;1.61;100.00
9141;BME280;46330;50.822;7.126;2023-03-15T07:38:48;101016.56;;;1.68;100.00
9141;BME280;46330;50.822;7.126;2023-03-15T07:41:16;101022.53;;;1.67;100.00
9141;BME280;46330;50.822;7.126;2023-03-15T07:43:56;101018.25;;;1.68;100.00
9141;BME280;46330;50.822;7.126;2023-03-15T07:46:24;101027.06;;;1.77;100.00
9141;BME280;46330;50.822;7.126;2023-03-15T07:48:52;101027.09;;;1.79;100.00
9141;BME280;46330;50.822;7.126;2023-03-15T07:51:20;101028.28;;;1.94;100.00
9141;BME280;46330;50.822;7.126;2023-03-15T07:53:48;101034.69;;;2.11;100.00
9141;BME280;46330;50.822;7.126;2023-03-15T07:56:17;101038.97;;;2.11;100.00
9141;BME280;46330;50.822;7.126;2023-03-15T07:58:45;101043.63;;;2.27;100.00
9141;BME280;46330;50.822;7.126;2023-03-15T08:01:14;101042.13;;;2.40;100.00
9141;BME280;46330;50.822;7.126;2023-03-15T08:03:42;101045.81;;;2.51;100.00
9141;BME280;46330;50.822;7.126;2023-03-15T08:06:10;101053.31;;;2.39;100.00
9141;BME280;46330;50.822;7.126;2023-03-15T08:08:38;101050.94;;;2.48;100.00
9141;BME280;46330;50.822;7.126;2023-03-15T08:11:06;101056.91;;;2.47;100.00
9141;BME280;46330;50.822;7.126;2023-03-15T08:13:34;101056.03;;;2.46;100.00
9141;BME280;46330;50.822;7.126;2023-03-15T08:16:02;101063.06;;;2.53;100.00
9141;BME280;46330;50.822;7.126;2023-03-15T08:18:31;101069.81;;;2.45;100.00
9141;BME280;46330;50.822;7.126;2023-03-15T08:20:59;101081.84;;;2.45;100.00
9141;BME280;46330;50.822;7.126;2023-03-15T08:23:27;101075.56;;;2.32;100.00
9141;BME280;46330;50.822;7.126;2023-03-15T08:25:55;101086.28;;;2.52;100.00
9141;BME280;46330;50.822;7.126;2023-03-15T08:28:23;101084.53;;;2.51;100.00
9141;BME280;46330;50.822;7.126;2023-03-15T08:30:51;101081.13;;;2.52;100.00
9141;BME280;46330;50.822;7.126;2023-03-15T08:33:19;101091.47;;;2.53;100.00
9141;BME280;46330;50.822;7.126;2023-03-15T08:35:52;101091.34;;;2.46;100.00
9141;BME280;46330;50.822;7.126;2023-03-15T08:38:20;101105.88;;;2.42;100.00
9141;BME280;46330;50.822;7.126;2023-03-15T08:40:48;101105.00;;;2.42;100.00
9141;BME280;46330;50.822;7.126;2023-03-15T08:43:16;101105.25;;;2.54;100.00
9141;BME280;46330;50.822;7.126;2023-03-15T08:45:44;101102.84;;;2.61;100.00
9141;BME280;46330;50.822;7.126;2023-03-15T08:48:26;101106.09;;;2.53;100.00
9141;BME280;46330;50.822;7.126;2023-03-15T08:50:55;101118.41;;;2.66;100.00
9141;BME280;46330;50.822;7.126;2023-03-15T08:53:24;101122.88;;;2.73;100.00
9141;BME280;46330;50.822;7.126;2023-03-15T08:55:52;101130.50;;;2.67;100.00
9141;BME280;46330;50.822;7.126;2023-03-15T08:58:20;101137.31;;;2.63;100.00
9141;BME280;46330;50.822;7.126;2023-03-15T09:00:48;101145.75;;;2.55;100.00
9141;BME280;46330;50.822;7.126;2023-03-15T09:03:17;101145.88;;;2.62;100.00
9141;BME280;46330;50.822;7.126;2023-03-15T09:05:45;101155.38;;;2.63;100.00
9141;BME280;46330;50.822;7.126;2023-03-15T09:08:14;101152.94;;;2.71;100.00
9141;BME280;46330;50.822;7.126;2023-03-15T09:10:46;101155.91;;;2.89;100.00
9141;BME280;46330;50.822;7.126;2023-03-15T09:13:14;101146.16;;;3.19;100.00
9141;BME280;46330;50.822;7.126;2023-03-15T09:15:42;101157.44;;;3.23;99.64
9141;BME280;46330;50.822;7.126;2023-03-15T09:18:10;101153.34;;;3.36;100.00
9141;BME280;46330;50.822;7.126;2023-03-15T09:20:38;101154.66;;;3.60;100.00
9141;BME280;46330;50.822;7.126;2023-03-15T09:23:06;101169.19;;;3.54;97.94
9141;BME280;46330;50.822;7.126;2023-03-15T09:25:36;101159.31;;;3.79;98.56
9141;BME280;46330;50.822;7.126;2023-03-15T09:28:05;101164.56;;;3.86;97.62
9141;BME280;46330;50.822;7.126;2023-03-15T09:30:34;101162.91;;;3.91;96.43
9141;BME280;46330;50.822;7.126;2023-03-15T09:33:03;101170.59;;;3.85;96.53
9141;BME280;46330;50.822;7.126;2023-03-15T09:35:31;101170.81;;;4.00;96.06
9141;BME280;46330;50.822;7.126;2023-03-15T09:37:59;101174.16;;;3.91;94.91
9141;BME280;46330;50.822;7.126;2023-03-15T09:40:29;101182.16;;;4.06;94.36
9141;BME280;46330;50.822;7.126;2023-03-15T09:43:13;101169.44;;;4.20;95.52
9141;BME280;46330;50.822;7.126;2023-03-15T09:45:54;101176.84;;;4.56;93.87
9141;BME280;46330;50.822;7.126;2023-03-15T09:48:30;101176.59;;;4.38;93.31
9141;BME280;46330;50.822;7.126;2023-03-15T09:51:01;101189.53;;;5.01;90.82
9141;BME280;46330;50.822;7.126;2023-03-15T09:53:35;101192.28;;;6.00;84.99
9141;BME280;46330;50.822;7.126;2023-03-15T09:56:18;101189.16;;;6.43;80.77
9141;BME280;46330;50.822;7.126;2023-03-15T09:58:50;101185.09;;;6.98;78.83
9141;BME280;46330;50.822;7.126;2023-03-15T10:01:23;101182.69;;;7.92;75.85
9141;BME280;46330;50.822;7.126;2023-03-15T10:03:53;101180.09;;;8.39;72.02
9141;BME280;46330;50.822;7.126;2023-03-15T10:06:23;101181.81;;;8.42;68.36
9141;BME280;46330;50.822;7.126;2023-03-15T10:08:55;101181.66;;;8.92;68.25
9141;BME280;46330;50.822;7.126;2023-03-15T10:11:28;101180.72;;;9.08;64.72
9141;BME280;46330;50.822;7.126;2023-03-15T10:14:12;101184.16;;;9.16;64.60
9141;BME280;46330;50.822;7.126;2023-03-15T10:16:46;101190.16;;;9.35;63.36
9141;BME280;46330;50.822;7.126;2023-03-15T10:19:24;101180.94;;;8.20;63.98
9141;BME280;46330;50.822;7.126;2023-03-15T10:21:57;101172.28;;;8.00;61.49
9141;BME280;46330;50.822;7.126;2023-03-15T10:24:32;101174.53;;;9.33;61.94
9141;BME280;46330;50.822;7.126;2023-03-15T10:27:12;101177.59;;;9.93;60.97
9141;BME280;46330;50.822;7.126;2023-03-15T10:29:43;101181.13;;;9.84;58.38
9141;BME280;46330;50.822;7.126;2023-03-15T10:32:15;101175.13;;;10.70;53.70
9141;BME280;46330;50.822;7.126;2023-03-15T10:34:47;101188.16;;;9.74;55.34
9141;BME280;46330;50.822;7.126;2023-03-15T10:37:16;101180.00;;;10.20;55.02
9141;BME280;46330;50.822;7.126;2023-03-15T10:39:46;101182.28;;;10.53;54.15
9141;BME280;46330;50.822;7.126;2023-03-15T10:42:25;101178.50;;;10.78;54.30
9141;BME280;46330;50.822;7.126;2023-03-15T10:44:54;101188.06;;;9.88;55.27
9141;BME280;46330;50.822;7.126;2023-03-15T10:47:24;101176.44;;;8.92;57.11
9141;BME280;46330;50.822;7.126;2023-03-15T10:49:55;101184.03;;;9.46;54.77
9141;BME280;46330;50.822;7.126;2023-03-15T10:52:42;101183.22;;;10.48;54.91
9141;BME280;46330;50.822;7.126;2023-03-15T10:55:13;101172.19;;;10.98;55.78
9141;BME280;46330;50.822;7.126;2023-03-15T10:57:51;101169.50;;;11.04;54.21
9141;BME280;46330;50.822;7.126;2023-03-15T11:00:28;101175.03;;;10.79;54.37
9141;BME280;46330;50.822;7.126;2023-03-15T11:03:02;101180.47;;;11.91;53.05
9141;BME280;46330;50.822;7.126;2023-03-15T11:05:31;101178.22;;;11.67;50.30
9141;BME280;46330;50.822;7.126;2023-03-15T11:08:11;101172.78;;;12.31;50.50
9141;BME280;46330;50.822;7.126;2023-03-15T11:10:39;101175.59;;;11.67;51.34
9141;BME280;46330;50.822;7.126;2023-03-15T11:13:09;101183.97;;;11.30;51.03
9141;BME280;46330;50.822;7.126;2023-03-15T11:15:39;101187.13;;;10.90;51.36
9141;BME280;46330;50.822;7.126;2023-03-15T11:18:16;101206.50;;;9.70;51.03
9141;BME280;46330;50.822;7.126;2023-03-15T11:20:44;101197.59;;;10.90;51.67
9141;BME280;46330;50.822;7.126;2023-03-15T11:23:14;101209.41;;;10.43;53.54
9141;BME280;46330;50.822;7.126;2023-03-15T11:25:43;101198.63;;;12.03;46.86
9141;BME280;46330;50.822;7.126;2023-03-15T11:28:16;101195.59;;;12.73;44.82
9141;BME280;46330;50.822;7.126;2023-03-15T11:30:47;101203.09;;;13.37;43.75
9141;BME280;46330;50.822;7.126;2023-03-15T11:33:26;101208.41;;;12.44;43.87
9141;BME280;46330;50.822;7.126;2023-03-15T11:36:02;101216.16;;;11.39;45.52
9141;BME280;46330;50.822;7.126;2023-03-15T11:38:34;101210.56;;;10.99;49.49
9141;BME280;46330;50.822;7.126;2023-03-15T11:41:10;101211.00;;;11.32;48.55
9141;BME280;46330;50.822;7.126;2023-03-15T11:43:48;101217.50;;;11.00;48.94
9141;BME280;46330;50.822;7.126;2023-03-15T11:46:26;101221.47;;;12.47;45.18
9141;BME280;46330;50.822;7.126;2023-03-15T11:49:01;101219.41;;;12.15;44.47
9141;BME280;46330;50.822;7.126;2023-03-15T11:51:32;101221.44;;;12.49;46.38
9141;BME280;46330;50.822;7.126;2023-03-15T11:54:07;101225.25;;;12.32;46.96
9141;BME280;46330;50.822;7.126;2023-03-15T11:56:48;101230.13;;;11.39;44.82
9141;BME280;46330;50.822;7.126;2023-03-15T11:59:18;101221.84;;;11.68;45.72
9141;BME280;46330;50.822;7.126;2023-03-15T12:01:50;101220.69;;;11.90;46.23
9141;BME280;46330;50.822;7.126;2023-03-15T12:04:44;101214.41;;;12.00;44.71
9141;BME280;46330;50.822;7.126;2023-03-15T12:07:35;101226.78;;;11.92;45.75
9141;BME280;46330;50.822;7.126;2023-03-15T12:10:32;101221.69;;;11.80;46.37
9141;BME280;46330;50.822;7.126;2023-03-15T12:13:13;101224.31;;;11.80;45.47
9141;BME280;46330;50.822;7.126;2023-03-15T12:15:45;101232.31;;;12.29;43.07
9141;BME280;46330;50.822;7.126;2023-03-15T12:18:37;101225.03;;;12.43;40.13
9141;BME280;46330;50.822;7.126;2023-03-15T12:21:09;101220.56;;;12.50;43.25
9141;BME280;46330;50.822;7.126;2023-03-15T12:23:42;101227.66;;;11.91;46.47
9141;BME280;46330;50.822;7.126;2023-03-15T12:26:34;101226.28;;;12.21;43.84
9141;BME280;46330;50.822;7.126;2023-03-15T12:29:10;101231.16;;;12.44;42.12
9141;BME280;46330;50.822;7.126;2023-03-15T12:31:48;101225.47;;;12.20;43.20
9141;BME280;46330;50.822;7.126;2023-03-15T12:34:26;101226.09;;;11.78;41.89
9141;BME280;46330;50.822;7.126;2023-03-15T12:36:58;101232.69;;;10.70;43.04
9141;BME280;46330;50.822;7.126;2023-03-15T12:39:45;101231.59;;;11.58;45.72
9141;BME280;46330;50.822;7.126;2023-03-15T12:45:40;101220.69;;;12.89;40.07
9141;BME280;46330;50.822;7.126;2023-03-15T12:48:24;101220.63;;;13.37;41.17
9141;BME280;46330;50.822;7.126;2023-03-15T12:51:15;101221.91;;;12.70;41.59
9141;BME280;46330;50.822;7.126;2023-03-15T12:54:03;101215.34;;;12.48;40.36
9141;BME280;46330;50.822;7.126;2023-03-15T12:56:35;101215.59;;;12.80;39.22
9141;BME280;46330;50.822;7.126;2023-03-15T12:59:31;101217.91;;;11.38;39.81
9141;BME280;46330;50.822;7.126;2023-03-15T13:02:02;101214.88;;;11.70;40.45
9141;BME280;46330;50.822;7.126;2023-03-15T13:04:30;101214.47;;;11.96;40.45
9141;BME280;46330;50.822;7.126;2023-03-15T13:07:22;101214.22;;;12.12;38.88
9141;BME280;46330;50.822;7.126;2023-03-15T13:13:00;101208.59;;;11.81;38.81
9141;BME280;46330;50.822;7.126;2023-03-15T13:15:36;101205.81;;;12.43;37.97
9141;BME280;46330;50.822;7.126;2023-03-15T13:18:12;101199.94;;;11.09;38.57
9141;BME280;46330;50.822;7.126;2023-03-15T13:20:50;101197.09;;;12.40;39.16
9141;BME280;46330;50.822;7.126;2023-03-15T13:23:27;101213.47;;;12.55;39.22
9141;BME280;46330;50.822;7.126;2023-03-15T13:26:07;101213.63;;;11.95;40.47
9141;BME280;46330;50.822;7.126;2023-03-15T13:28:44;101200.00;;;12.25;37.62
9141;BME280;46330;50.822;7.126;2023-03-15T13:31:19;101210.72;;;12.12;38.58
9141;BME280;46330;50.822;7.126;2023-03-15T13:33:48;101204.25;;;12.32;37.89
9141;BME280;46330;50.822;7.126;2023-03-15T13:36:18;101208.16;;;12.09;37.98
9141;BME280;46330;50.822;7.126;2023-03-15T13:38:51;101196.06;;;12.49;38.10
9141;BME280;46330;50.822;7.126;2023-03-15T13:41:22;101208.91;;;12.66;37.58